Time;durP1;ratioP1;P1;durP2;ratioP2;P2;SDS_P1;SDS_P2;PMS_P1;PMS_P2;Temp;Humidity;BMP_temperature;BMP_pressure;BME280_temperature;BME280_humidity;BME280_pressure;Samples;Min_cycle;Max_cycle;Signal;HPM_P1;HPM_P2
2022/01/16 00:01:05;;;;;;;6.72;4.85;;;;;;;;;;5006884;28;20385;-41
2022/01/16 00:06:17;;;;;;;5.95;4.25;;;;;;;;;;5006086;28;20092;-37
2022/01/16 00:08:43;;;;;;;7.32;4.30;;;;;;;;;;5006885;28;20124;-40
2022/01/16 00:11:08;;;;;;;4.97;4.10;;;;;;;;;;5006401;28;20615;-37
2022/01/16 00:13:34;;;;;;;6.68;4.47;;;;;;;;;;5006302;28;20030;-40
2022/01/16 00:15:59;;;;;;;6.65;4.65;;;;;;;;;;5005799;28;20558;-40
2022/01/16 00:18:28;;;;;;;6.82;4.88;;;;;;;;;;5005896;28;20030;-36
2022/01/16 00:20:54;;;;;;;5.68;4.50;;;;;;;;;;5006443;28;20044;-41
2022/01/16 00:23:25;;;;;;;5.45;4.22;;;;;;;;;;5006582;28;20022;-36
2022/01/16 00:25:51;;;;;;;5.90;4.38;;;;;;;;;;4994986;28;20030;-38
2022/01/16 00:28:17;;;;;;;5.18;3.85;;;;;;;;;;4986854;28;20029;-39
2022/01/16 00:30:42;;;;;;;5.45;3.97;;;;;;;;;;4985691;28;20030;-41
2022/01/16 00:33:08;;;;;;;6.45;4.50;;;;;;;;;;4986010;28;20077;-39
2022/01/16 00:35:33;;;;;;;5.63;4.20;;;;;;;;;;4986800;28;20042;-39
2022/01/16 00:37:59;;;;;;;5.13;4.13;;;;;;;;;;4986454;28;20046;-38
2022/01/16 00:40:24;;;;;;;4.97;4.07;;;;;;;;;;4986723;28;20104;-40
2022/01/16 00:42:50;;;;;;;5.18;4.03;;;;;;;;;;4986377;28;20109;-38
2022/01/16 00:45:15;;;;;;;5.35;3.85;;;;;;;;;;5006186;28;20017;-39
2022/01/16 00:47:41;;;;;;;5.88;3.85;;;;;;;;;;5005942;28;20050;-39
2022/01/16 00:50:07;;;;;;;4.72;3.78;;;;;;;;;;5005817;28;20025;-40
2022/01/16 00:52:33;;;;;;;4.50;3.70;;;;;;;;;;5005698;28;20537;-38
2022/01/16 00:55:03;;;;;;;5.13;3.83;;;;;;;;;;5004094;28;20125;-40
2022/01/16 00:57:29;;;;;;;4.97;3.55;;;;;;;;;;5006044;28;20416;-37
2022/01/16 00:59:55;;;;;;;6.30;3.88;;;;;;;;;;5005529;28;20037;-40
2022/01/16 01:02:21;;;;;;;4.43;3.60;;;;;;;;;;5005722;28;20018;-40
2022/01/16 01:04:47;;;;;;;5.32;3.85;;;;;;;;;;5005987;28;20057;-38
2022/01/16 01:07:13;;;;;;;5.13;3.95;;;;;;;;;;5005813;28;20065;-37
2022/01/16 01:09:39;;;;;;;3.90;3.20;;;;;;;;;;4986438;28;20026;-38
2022/01/16 01:12:06;;;;;;;4.72;3.55;;;;;;;;;;4985988;28;20145;-39
2022/01/16 01:14:52;;;;;;;5.32;3.53;;;;;;;;;;4985920;28;20026;-34
2022/01/16 01:17:23;;;;;;;5.68;3.63;;;;;;;;;;4985185;28;20022;-38
2022/01/16 01:19:49;;;;;;;4.28;3.55;;;;;;;;;;4985570;28;20501;-39
2022/01/16 01:22:14;;;;;;;4.38;3.45;;;;;;;;;;4989695;28;20029;-39
2022/01/16 01:24:40;;;;;;;4.38;3.17;;;;;;;;;;4997126;28;20026;-38
2022/01/16 01:29:34;;;;;;;3.90;3.13;;;;;;;;;;4986003;28;20041;-38
2022/01/16 01:32:01;;;;;;;4.35;3.25;;;;;;;;;;4985359;28;20022;-38
2022/01/16 01:34:26;;;;;;;4.43;3.30;;;;;;;;;;4993412;28;20488;-36
2022/01/16 01:36:52;;;;;;;3.70;3.17;;;;;;;;;;5004980;28;20054;-40
2022/01/16 01:39:21;;;;;;;4.28;3.03;;;;;;;;;;5004725;28;20627;-37
2022/01/16 01:41:49;;;;;;;4.88;3.08;;;;;;;;;;5005103;28;20030;-38
2022/01/16 01:52:27;;;;;;;3.90;2.90;;;;;;;;;;5004450;28;20060;-39
2022/01/16 01:54:52;;;;;;;4.25;3.00;;;;;;;;;;5003808;28;20686;-36
2022/01/16 01:57:18;;;;;;;3.80;2.90;;;;;;;;;;5005088;28;20048;-41
2022/01/16 01:59:43;;;;;;;3.75;2.58;;;;;;;;;;5004932;28;20033;-36
2022/01/16 02:02:09;;;;;;;3.30;2.60;;;;;;;;;;5005040;28;20034;-40
2022/01/16 02:04:34;;;;;;;3.83;2.80;;;;;;;;;;5005088;28;20053;-37
2022/01/16 02:07:00;;;;;;;3.65;2.63;;;;;;;;;;5004392;28;20410;-40
2022/01/16 02:09:26;;;;;;;3.50;2.90;;;;;;;;;;5004896;28;20038;-36
2022/01/16 02:11:52;;;;;;;3.28;2.45;;;;;;;;;;5005181;28;20156;-39
2022/01/16 02:14:31;;;;;;;3.92;2.75;;;;;;;;;;5005111;28;20667;-40
2022/01/16 02:35:40;;;;;;;4.05;2.50;;;;;;;;;;5008597;28;20048;-38
2022/01/16 02:38:08;;;;;;;3.58;2.42;;;;;;;;;;5008225;28;20666;-38
2022/01/16 02:40:35;;;;;;;2.83;2.17;;;;;;;;;;5006542;28;20080;-39
2022/01/16 02:43:02;;;;;;;2.72;2.20;;;;;;;;;;5008026;28;20026;-40
2022/01/16 02:45:30;;;;;;;3.05;2.25;;;;;;;;;;5008033;28;20040;-40
2022/01/16 02:47:57;;;;;;;2.97;2.17;;;;;;;;;;5007838;28;20025;-38
2022/01/16 02:50:23;;;;;;;2.40;1.88;;;;;;;;;;5008026;28;20177;-40
2022/01/16 02:52:49;;;;;;;2.50;2.30;;;;;;;;;;5007996;28;20459;-39
2022/01/16 02:55:15;;;;;;;2.97;2.10;;;;;;;;;;5008063;28;20482;-38
2022/01/16 02:57:40;;;;;;;2.85;2.28;;;;;;;;;;5007904;28;20030;-37
2022/01/16 03:00:07;;;;;;;2.72;1.88;;;;;;;;;;5007850;28;20583;-34
2022/01/16 03:02:32;;;;;;;2.90;2.05;;;;;;;;;;5007449;28;20030;-38
2022/01/16 03:04:58;;;;;;;2.42;2.00;;;;;;;;;;5007201;28;20084;-37
2022/01/16 03:07:23;;;;;;;2.25;1.90;;;;;;;;;;5006637;28;20154;-39
2022/01/16 03:12:40;;;;;;;2.78;1.98;;;;;;;;;;5008209;28;20561;-41
2022/01/16 03:15:07;;;;;;;2.00;1.80;;;;;;;;;;5007797;28;20022;-39
2022/01/16 03:21:52;;;;;;;2.20;1.90;;;;;;;;;;5007823;28;20025;-41
2022/01/16 03:23:04;;;;;;;2.13;1.88;;;;;;;;;;5006123;28;20045;-38
2022/01/16 03:25:30;;;;;;;2.15;1.50;;;;;;;;;;5007915;28;20030;-40
2022/01/16 03:27:55;;;;;;;2.22;1.60;;;;;;;;;;5006359;28;20069;-35
2022/01/16 03:30:21;;;;;;;1.77;1.58;;;;;;;;;;5006788;28;20030;-39
2022/01/16 03:32:46;;;;;;;2.47;1.85;;;;;;;;;;5007188;28;20439;-36
2022/01/16 03:35:11;;;;;;;2.20;1.58;;;;;;;;;;5007126;28;20152;-37
2022/01/16 03:37:37;;;;;;;2.22;1.80;;;;;;;;;;5007153;28;20030;-35
2022/01/16 03:40:05;;;;;;;2.33;1.65;;;;;;;;;;5007130;28;20037;-35
2022/01/16 03:42:33;;;;;;;2.05;1.60;;;;;;;;;;5006462;28;20033;-36
2022/01/16 03:44:58;;;;;;;2.13;1.67;;;;;;;;;;5007493;28;20033;-37
2022/01/16 03:47:24;;;;;;;2.58;1.90;;;;;;;;;;5007136;28;20026;-40
2022/01/16 03:49:50;;;;;;;2.40;1.60;;;;;;;;;;5005764;28;20026;-39
2022/01/16 03:52:15;;;;;;;2.22;1.60;;;;;;;;;;5006150;28;20030;-37
2022/01/16 03:54:41;;;;;;;2.00;1.77;;;;;;;;;;5007254;28;20037;-40
2022/01/16 03:57:06;;;;;;;2.08;1.60;;;;;;;;;;5006614;28;20512;-37
2022/01/16 03:59:33;;;;;;;1.50;1.38;;;;;;;;;;5006685;28;20504;-36
2022/01/16 04:01:58;;;;;;;1.90;1.70;;;;;;;;;;5006483;28;20516;-35
2022/01/16 04:04:24;;;;;;;1.92;1.55;;;;;;;;;;5006534;28;20040;-39
2022/01/16 04:06:49;;;;;;;2.85;1.92;;;;;;;;;;5006553;28;20451;-37
2022/01/16 04:09:15;;;;;;;2.20;1.55;;;;;;;;;;5006272;28;20042;-38
2022/01/16 04:11:48;;;;;;;2.40;1.75;;;;;;;;;;5006475;28;20061;-35
2022/01/16 04:14:22;;;;;;;;;;;;;;;;;;5007098;28;20113;-38
2022/01/16 04:16:48;;;;;;;2.20;1.52;;;;;;;;;;5006347;28;20458;-37
2022/01/16 04:19:13;;;;;;;2.15;1.52;;;;;;;;;;5006206;28;20029;-38
2022/01/16 04:21:39;;;;;;;2.72;1.70;;;;;;;;;;4998379;28;20041;-38
2022/01/16 04:24:05;;;;;;;2.15;1.70;;;;;;;;;;4986914;28;20499;-40
2022/01/16 04:26:30;;;;;;;2.63;1.83;;;;;;;;;;4987024;28;20035;-36
2022/01/16 04:28:56;;;;;;;1.83;1.40;;;;;;;;;;4986695;28;20034;-40
2022/01/16 04:31:21;;;;;;;2.53;1.73;;;;;;;;;;4984602;28;20038;-39
2022/01/16 04:33:47;;;;;;;1.70;1.50;;;;;;;;;;4984310;28;20050;-39
2022/01/16 04:36:13;;;;;;;1.52;1.30;;;;;;;;;;4985533;28;20109;-39
2022/01/16 04:38:44;;;;;;;2.33;1.70;;;;;;;;;;4986335;28;20027;-40
2022/01/16 04:43:55;;;;;;;2.60;1.67;;;;;;;;;;4985840;28;20587;-39
2022/01/16 04:46:22;;;;;;;1.85;1.45;;;;;;;;;;4986591;28;20038;-36
2022/01/16 04:48:47;;;;;;;1.90;1.70;;;;;;;;;;4986619;28;20026;-36
2022/01/16 04:51:13;;;;;;;2.17;1.63;;;;;;;;;;4985502;28;20463;-39
2022/01/16 04:53:39;;;;;;;1.90;1.60;;;;;;;;;;4985263;28;20034;-40
2022/01/16 04:56:05;;;;;;;3.25;1.50;;;;;;;;;;4986322;28;20029;-37
2022/01/16 04:58:30;;;;;;;2.10;1.60;;;;;;;;;;4986291;28;20023;-38
2022/01/16 05:00:56;;;;;;;2.60;1.83;;;;;;;;;;4986407;28;20109;-40
2022/01/16 05:03:25;;;;;;;2.35;1.73;;;;;;;;;;4986528;28;20645;-35
2022/01/16 05:05:50;;;;;;;1.88;1.38;;;;;;;;;;4998166;28;20037;-39
2022/01/16 05:08:16;;;;;;;2.15;1.42;;;;;;;;;;4986085;28;20031;-36
2022/01/16 05:10:41;;;;;;;1.90;1.52;;;;;;;;;;4986236;28;20078;-35
2022/01/16 05:18:46;;;;;;;1.77;1.60;;;;;;;;;;4985656;28;20205;-39
2022/01/16 05:21:11;;;;;;;1.98;1.40;;;;;;;;;;4985997;28;20182;-39
2022/01/16 05:23:37;;;;;;;1.90;1.42;;;;;;;;;;4985610;28;20436;-39
2022/01/16 05:26:03;;;;;;;2.03;1.70;;;;;;;;;;4985970;28;20101;-35
2022/01/16 05:28:29;;;;;;;2.13;1.60;;;;;;;;;;4986068;28;20417;-38
2022/01/16 05:30:54;;;;;;;2.10;1.60;;;;;;;;;;4985684;28;20113;-38
2022/01/16 05:33:20;;;;;;;2.13;1.77;;;;;;;;;;4985676;28;20052;-34
2022/01/16 05:35:46;;;;;;;2.28;1.63;;;;;;;;;;4986097;28;20029;-37
2022/01/16 05:38:11;;;;;;;1.92;1.70;;;;;;;;;;4985081;28;20473;-39
2022/01/16 05:40:37;;;;;;;2.60;1.83;;;;;;;;;;4985716;28;20488;-39
2022/01/16 05:43:02;;;;;;;3.20;2.38;;;;;;;;;;4991431;28;20156;-40
2022/01/16 05:45:28;;;;;;;2.40;2.08;;;;;;;;;;5005049;28;20404;-39
2022/01/16 05:47:54;;;;;;;2.17;1.65;;;;;;;;;;5004767;28;20022;-36
2022/01/16 05:50:21;;;;;;;2.03;1.77;;;;;;;;;;5004982;28;20033;-37
2022/01/16 05:52:47;;;;;;;2.20;1.88;;;;;;;;;;5005390;28;20499;-39
2022/01/16 05:55:13;;;;;;;3.08;2.00;;;;;;;;;;5007046;28;20034;-40
2022/01/16 05:57:38;;;;;;;2.88;2.17;;;;;;;;;;5009079;28;20029;-38
2022/01/16 06:00:04;;;;;;;2.60;2.10;;;;;;;;;;5008750;28;20042;-38
2022/01/16 06:02:30;;;;;;;3.13;2.35;;;;;;;;;;5008906;28;20025;-39
2022/01/16 06:04:55;;;;;;;2.85;2.33;;;;;;;;;;5008988;28;20554;-38
2022/01/16 06:07:21;;;;;;;2.65;2.20;;;;;;;;;;5009227;28;20018;-37
2022/01/16 06:09:46;;;;;;;3.33;2.40;;;;;;;;;;5008723;28;20520;-37
2022/01/16 06:12:12;;;;;;;2.42;1.90;;;;;;;;;;5009076;28;20099;-38
2022/01/16 06:14:37;;;;;;;2.25;2.03;;;;;;;;;;5009005;28;20034;-37
2022/01/16 06:17:03;;;;;;;2.47;2.08;;;;;;;;;;5008775;28;20034;-39
2022/01/16 06:19:29;;;;;;;2.85;1.90;;;;;;;;;;5009146;28;20029;-35
2022/01/16 06:21:54;;;;;;;2.45;2.10;;;;;;;;;;5007033;28;20030;-39
2022/01/16 06:24:20;;;;;;;3.17;2.38;;;;;;;;;;5008570;28;20633;-33
2022/01/16 06:26:46;;;;;;;2.85;2.33;;;;;;;;;;5008495;28;20026;-37
2022/01/16 06:29:11;;;;;;;2.53;2.25;;;;;;;;;;5008164;28;20101;-40
2022/01/16 06:31:37;;;;;;;3.38;2.40;;;;;;;;;;5008699;28;20025;-33
2022/01/16 06:34:05;;;;;;;2.88;2.45;;;;;;;;;;5007248;28;20606;-37
2022/01/16 06:36:31;;;;;;;2.50;1.90;;;;;;;;;;5008378;28;20094;-38
2022/01/16 06:38:57;;;;;;;2.63;2.30;;;;;;;;;;5008107;28;20022;-32
2022/01/16 06:41:22;;;;;;;2.47;2.05;;;;;;;;;;5008510;28;20057;-35
2022/01/16 06:43:48;;;;;;;2.63;2.28;;;;;;;;;;5008279;28;20427;-38
2022/01/16 06:46:13;;;;;;;2.83;2.35;;;;;;;;;;5006197;28;20551;-37
2022/01/16 06:48:40;;;;;;;2.75;2.10;;;;;;;;;;5006809;28;20062;-39
2022/01/16 06:51:06;;;;;;;3.00;2.47;;;;;;;;;;5008281;28;20426;-40
2022/01/16 06:53:32;;;;;;;2.65;2.38;;;;;;;;;;5007629;28;20026;-37
2022/01/16 06:55:58;;;;;;;2.90;2.10;;;;;;;;;;5004014;28;20071;-40
2022/01/16 06:58:23;;;;;;;3.00;2.47;;;;;;;;;;5007831;28;20018;-36
2022/01/16 07:00:49;;;;;;;3.83;2.78;;;;;;;;;;5007681;28;20057;-36
2022/01/16 07:03:14;;;;;;;3.40;2.72;;;;;;;;;;5007797;28;20080;-38
2022/01/16 07:05:41;;;;;;;2.80;2.25;;;;;;;;;;4995860;28;20502;-40
2022/01/16 07:08:07;;;;;;;3.15;2.40;;;;;;;;;;5003005;28;20031;-37
2022/01/16 07:10:32;;;;;;;3.22;2.33;;;;;;;;;;5002550;28;20033;-39
2022/01/16 07:12:58;;;;;;;5.57;2.40;;;;;;;;;;5006525;28;20049;-36
2022/01/16 07:15:23;;;;;;;3.17;2.47;;;;;;;;;;5013613;28;20042;-34
2022/01/16 07:17:49;;;;;;;6.93;2.58;;;;;;;;;;5009085;28;20034;-39
2022/01/16 07:20:15;;;;;;;4.45;2.50;;;;;;;;;;4996278;28;20030;-38
2022/01/16 07:22:41;;;;;;;7.65;2.70;;;;;;;;;;4999632;28;20042;-40
2022/01/16 07:25:07;;;;;;;3.83;2.28;;;;;;;;;;4991416;28;20035;-38
2022/01/16 07:27:33;;;;;;;7.00;2.50;;;;;;;;;;4994787;28;20029;-35
2022/01/16 07:29:59;;;;;;;3.60;2.63;;;;;;;;;;5004563;28;20484;-37
2022/01/16 07:32:24;;;;;;;3.47;2.30;;;;;;;;;;5004118;28;20030;-39
2022/01/16 07:34:50;;;;;;;3.10;2.40;;;;;;;;;;5004410;28;20037;-37
2022/01/16 07:37:15;;;;;;;20.85;3.20;;;;;;;;;;5004209;28;20059;-38
2022/01/16 07:39:41;;;;;;;5.90;2.70;;;;;;;;;;5004444;28;20112;-39
2022/01/16 07:42:07;;;;;;;5.15;2.60;;;;;;;;;;5004892;28;20221;-35
2022/01/16 07:44:32;;;;;;;4.05;2.40;;;;;;;;;;4988741;28;20034;-37
2022/01/16 07:46:58;;;;;;;4.60;2.50;;;;;;;;;;4984318;28;20121;-39
2022/01/16 07:49:23;;;;;;;7.68;3.17;;;;;;;;;;4998061;28;20042;-34
2022/01/16 07:51:49;;;;;;;3.83;2.80;;;;;;;;;;5004412;28;20045;-38
2022/01/16 07:54:14;;;;;;;11.77;3.20;;;;;;;;;;4995919;28;20528;-36
2022/01/16 07:56:40;;;;;;;5.65;2.80;;;;;;;;;;4984523;28;20026;-38
2022/01/16 07:59:05;;;;;;;7.88;3.80;;;;;;;;;;4992298;28;20033;-37
2022/01/16 08:01:31;;;;;;;10.40;4.65;;;;;;;;;;5003406;28;20112;-40
2022/01/16 08:03:56;;;;;;;9.80;3.97;;;;;;;;;;5003309;28;20030;-38
2022/01/16 08:06:22;;;;;;;8.27;4.40;;;;;;;;;;5003583;28;20112;-36
2022/01/16 08:08:47;;;;;;;7.63;4.20;;;;;;;;;;5003520;28;20052;-37
2022/01/16 08:11:13;;;;;;;12.25;4.35;;;;;;;;;;5003748;28;20594;-36
2022/01/16 08:13:38;;;;;;;10.15;5.65;;;;;;;;;;5001742;28;20168;-33
2022/01/16 08:16:05;;;;;;;8.60;4.70;;;;;;;;;;5003394;28;20037;-39
2022/01/16 08:18:31;;;;;;;19.90;5.50;;;;;;;;;;5003313;28;20032;-41
2022/01/16 08:20:57;;;;;;;13.35;5.22;;;;;;;;;;4998646;28;20167;-35
2022/01/16 08:23:24;;;;;;;8.48;4.50;;;;;;;;;;4984207;28;20040;-38
2022/01/16 08:25:53;;;;;;;13.98;5.22;;;;;;;;;;4994413;28;20080;-36
2022/01/16 08:28:18;;;;;;;10.85;4.88;;;;;;;;;;5003774;28;20026;-40
2022/01/16 08:30:44;;;;;;;12.05;4.40;;;;;;;;;;5003723;28;20515;-38
2022/01/16 08:33:09;;;;;;;10.30;4.10;;;;;;;;;;5001379;28;20046;-39
2022/01/16 08:35:35;;;;;;;7.50;3.95;;;;;;;;;;5004157;28;20025;-39
2022/01/16 08:38:01;;;;;;;8.52;4.30;;;;;;;;;;5004348;28;20115;-38
2022/01/16 08:40:26;;;;;;;12.10;4.15;;;;;;;;;;5003668;28;20397;-40
2022/01/16 08:42:52;;;;;;;8.98;4.55;;;;;;;;;;5004200;28;20027;-39
2022/01/16 08:45:17;;;;;;;9.35;3.97;;;;;;;;;;5013207;28;20021;-39
2022/01/16 08:47:43;;;;;;;15.43;3.75;;;;;;;;;;4988813;28;20050;-36
2022/01/16 08:50:09;;;;;;;8.05;4.00;;;;;;;;;;4997270;28;20509;-38
2022/01/16 08:52:34;;;;;;;5.20;3.90;;;;;;;;;;4993326;28;20076;-37
2022/01/16 08:55:01;;;;;;;8.15;3.72;;;;;;;;;;5003635;28;20041;-39
2022/01/16 08:57:27;;;;;;;12.93;4.20;;;;;;;;;;4997635;28;20026;-37
2022/01/16 08:59:52;;;;;;;9.68;3.97;;;;;;;;;;4994839;28;20034;-36
2022/01/16 09:02:18;;;;;;;13.45;4.35;;;;;;;;;;5002063;28;20030;-37
2022/01/16 09:04:43;;;;;;;10.38;4.30;;;;;;;;;;5001936;28;20054;-40
2022/01/16 09:07:09;;;;;;;6.63;4.13;;;;;;;;;;5001189;28;20038;-38
2022/01/16 09:09:34;;;;;;;17.92;4.38;;;;;;;;;;4998517;28;20075;-40
2022/01/16 09:12:00;;;;;;;18.65;5.00;;;;;;;;;;5005349;28;20088;-36
2022/01/16 09:14:26;;;;;;;17.48;4.57;;;;;;;;;;5002639;28;20121;-40
2022/01/16 09:16:51;;;;;;;13.10;5.00;;;;;;;;;;4987501;28;20113;-41
2022/01/16 09:19:17;;;;;;;9.20;4.60;;;;;;;;;;5006652;28;20501;-37
2022/01/16 09:21:42;;;;;;;13.43;4.80;;;;;;;;;;4996695;28;20512;-40
2022/01/16 09:24:08;;;;;;;10.52;4.43;;;;;;;;;;5000711;28;20121;-38
2022/01/16 09:26:35;;;;;;;12.07;4.93;;;;;;;;;;5019364;28;20026;-38
2022/01/16 09:29:01;;;;;;;18.52;5.90;;;;;;;;;;5012202;28;20037;-38
2022/01/16 09:31:26;;;;;;;12.73;5.38;;;;;;;;;;5019890;28;20458;-38
2022/01/16 09:33:54;;;;;;;11.13;5.82;;;;;;;;;;5002727;28;20365;-39
2022/01/16 09:36:19;;;;;;;12.82;5.22;;;;;;;;;;4990319;28;20036;-39
2022/01/16 09:38:45;;;;;;;13.73;5.50;;;;;;;;;;5012020;28;20030;-37
2022/01/16 09:41:10;;;;;;;13.10;6.05;;;;;;;;;;5010239;28;20062;-37
2022/01/16 09:43:37;;;;;;;9.02;6.07;;;;;;;;;;5003101;28;20092;-39
2022/01/16 09:46:03;;;;;;;14.95;6.25;;;;;;;;;;4984813;28;20062;-39
2022/01/16 09:48:29;;;;;;;10.23;6.03;;;;;;;;;;4984717;28;20081;-40
2022/01/16 09:50:54;;;;;;;15.70;5.85;;;;;;;;;;4981909;28;20139;-38
2022/01/16 09:53:21;;;;;;;10.65;5.55;;;;;;;;;;4983024;28;20031;-39
2022/01/16 09:55:46;;;;;;;8.93;5.20;;;;;;;;;;4983402;28;20018;-40
2022/01/16 09:58:12;;;;;;;8.60;5.50;;;;;;;;;;4984027;28;20476;-41
2022/01/16 10:00:37;;;;;;;8.90;5.47;;;;;;;;;;4983277;28;20023;-38
2022/01/16 10:03:04;;;;;;;7.82;5.45;;;;;;;;;;4996459;28;20160;-36
2022/01/16 10:05:37;;;;;;;9.63;5.80;;;;;;;;;;5003958;28;20026;-39
2022/01/16 10:08:07;;;;;;;6.63;4.95;;;;;;;;;;5004299;28;20026;-41
2022/01/16 10:10:34;;;;;;;11.35;5.65;;;;;;;;;;5004101;28;20025;-34
2022/01/16 10:13:07;;;;;;;9.77;6.43;;;;;;;;;;5004490;28;20030;-38
2022/01/16 10:15:33;;;;;;;9.23;6.85;;;;;;;;;;5004484;28;20428;-40
2022/01/16 10:18:01;;;;;;;10.63;7.28;;;;;;;;;;5004233;28;20041;-37
2022/01/16 10:20:27;;;;;;;9.80;6.95;;;;;;;;;;5002699;28;20034;-37
2022/01/16 10:22:55;;;;;;;10.55;7.97;;;;;;;;;;4985647;28;20065;-39
2022/01/16 10:25:44;;;;;;;12.25;7.63;;;;;;;;;;4985195;28;20026;-36
2022/01/16 10:28:36;;;;;;;10.90;7.38;;;;;;;;;;4985427;28;20030;-38
2022/01/16 10:31:02;;;;;;;11.80;7.88;;;;;;;;;;4985523;28;20031;-41
2022/01/16 10:33:28;;;;;;;9.95;7.97;;;;;;;;;;4985204;28;20081;-37
2022/01/16 10:35:55;;;;;;;12.50;7.90;;;;;;;;;;4983891;28;20443;-35
2022/01/16 10:38:23;;;;;;;10.02;8.20;;;;;;;;;;4994677;28;20040;-37
2022/01/16 10:40:50;;;;;;;9.95;8.38;;;;;;;;;;5006513;28;20021;-38
2022/01/16 10:43:18;;;;;;;9.80;8.00;;;;;;;;;;5008475;28;20482;-41
2022/01/16 10:45:44;;;;;;;10.73;8.10;;;;;;;;;;5008556;28;20069;-38
2022/01/16 10:48:10;;;;;;;12.40;8.70;;;;;;;;;;5008100;28;20062;-37
2022/01/16 10:50:43;;;;;;;11.93;8.90;;;;;;;;;;5008246;28;20083;-39
2022/01/16 10:53:15;;;;;;;;;;;;;;;;;;5008362;28;20033;-40
2022/01/16 10:55:48;;;;;;;12.20;8.43;;;;;;;;;;5007878;28;20442;-40
2022/01/16 10:58:28;;;;;;;12.95;8.70;;;;;;;;;;5008014;28;20109;-39
2022/01/16 11:01:03;;;;;;;10.32;7.90;;;;;;;;;;5008491;28;20029;-36
2022/01/16 11:03:42;;;;;;;12.80;8.43;;;;;;;;;;5008177;28;20023;-40
2022/01/16 11:06:07;;;;;;;11.48;8.32;;;;;;;;;;5008178;28;20026;-38
2022/01/16 11:08:33;;;;;;;10.68;8.52;;;;;;;;;;5007722;28;20470;-37
2022/01/16 11:10:59;;;;;;;11.10;9.13;;;;;;;;;;5008089;28;20061;-39
2022/01/16 11:13:30;;;;;;;10.25;8.82;;;;;;;;;;5007349;28;20034;-34
2022/01/16 11:15:59;;;;;;;9.40;8.23;;;;;;;;;;5007419;28;20026;-37
2022/01/16 11:18:25;;;;;;;9.88;8.02;;;;;;;;;;5007802;28;20069;-33
2022/01/16 11:20:57;;;;;;;10.05;8.25;;;;;;;;;;5001753;28;20114;-36
2022/01/16 11:25:51;;;;;;;12.10;8.75;;;;;;;;;;4987119;28;20124;-36
2022/01/16 11:28:18;;;;;;;9.88;8.25;;;;;;;;;;4986371;28;20109;-40
2022/01/16 11:30:49;;;;;;;10.90;9.07;;;;;;;;;;4988045;28;20053;-35
2022/01/16 11:33:15;;;;;;;11.60;8.48;;;;;;;;;;4987458;28;20050;-40
2022/01/16 11:35:46;;;;;;;10.40;8.23;;;;;;;;;;4987677;28;20108;-38
2022/01/16 11:38:11;;;;;;;11.02;8.45;;;;;;;;;;4987890;28;20088;-40
2022/01/16 11:40:47;;;;;;;11.27;8.85;;;;;;;;;;4988137;28;20026;-38
2022/01/16 11:43:23;;;;;;;10.75;9.05;;;;;;;;;;4987654;28;20030;-39
2022/01/16 11:46:07;;;;;;;10.57;8.50;;;;;;;;;;5001987;28;20050;-39
2022/01/16 11:48:36;;;;;;;12.13;8.77;;;;;;;;;;4987736;28;20062;-39
2022/01/16 11:51:03;;;;;;;11.60;8.43;;;;;;;;;;4987656;28;20435;-34
2022/01/16 11:54:04;;;;;;;12.73;9.07;;;;;;;;;;4987380;28;20038;-37
2022/01/16 11:56:41;;;;;;;12.27;9.13;;;;;;;;;;4986502;28;20045;-40
2022/01/16 11:59:26;;;;;;;9.68;8.45;;;;;;;;;;4987083;28;20033;-38
2022/01/16 12:02:08;;;;;;;11.20;8.68;;;;;;;;;;5002128;28;20034;-40
2022/01/16 12:04:33;;;;;;;10.15;8.38;;;;;;;;;;4987187;28;20034;-37
2022/01/16 12:07:22;;;;;;;11.07;9.02;;;;;;;;;;4987110;28;20030;-35
2022/01/16 12:09:49;;;;;;;12.80;9.07;;;;;;;;;;4986876;28;20061;-39
2022/01/16 12:12:34;;;;;;;10.48;8.07;;;;;;;;;;4987197;28;20034;-39
2022/01/16 12:15:15;;;;;;;11.15;8.85;;;;;;;;;;4987271;28;20069;-39
2022/01/16 12:17:51;;;;;;;10.45;8.77;;;;;;;;;;4986895;28;20072;-36
2022/01/16 12:20:20;;;;;;;11.20;8.23;;;;;;;;;;4987363;28;20523;-35
2022/01/16 12:22:53;;;;;;;10.95;8.50;;;;;;;;;;4986933;28;20022;-38
2022/01/16 12:25:42;;;;;;;11.70;9.05;;;;;;;;;;4986790;28;20109;-40
2022/01/16 12:28:11;;;;;;;10.20;8.40;;;;;;;;;;4987116;28;20094;-37
2022/01/16 12:30:41;;;;;;;11.35;8.55;;;;;;;;;;4986710;28;20030;-33
2022/01/16 12:33:15;;;;;;;11.27;9.13;;;;;;;;;;4986256;28;20070;-38
2022/01/16 12:35:41;;;;;;;10.77;8.48;;;;;;;;;;4986655;28;20570;-35
2022/01/16 12:38:10;;;;;;;10.55;8.30;;;;;;;;;;4986781;28;20034;-34
2022/01/16 12:40:37;;;;;;;10.88;8.80;;;;;;;;;;4986460;28;20061;-38
2022/01/16 12:43:05;;;;;;;9.80;8.10;;;;;;;;;;4986667;28;20044;-35
2022/01/16 12:45:38;;;;;;;9.35;8.35;;;;;;;;;;4986431;28;20050;-38
2022/01/16 12:48:04;;;;;;;10.93;8.88;;;;;;;;;;4986577;28;20030;-38
2022/01/16 12:50:29;;;;;;;10.32;8.45;;;;;;;;;;4986666;28;20116;-35
2022/01/16 12:52:55;;;;;;;10.38;8.52;;;;;;;;;;4986299;28;20531;-40
2022/01/16 12:55:30;;;;;;;10.05;8.02;;;;;;;;;;4986126;28;20050;-39
2022/01/16 12:58:17;;;;;;;9.70;7.60;;;;;;;;;;4985647;28;20029;-39
2022/01/16 13:01:04;;;;;;;9.70;8.02;;;;;;;;;;4986277;28;20105;-39
2022/01/16 13:03:34;;;;;;;9.90;7.97;;;;;;;;;;4985216;28;20073;-40
2022/01/16 13:06:25;;;;;;;9.55;8.18;;;;;;;;;;4986072;28;20057;-37
2022/01/16 13:09:04;;;;;;;11.00;8.25;;;;;;;;;;4986387;28;20457;-39
2022/01/16 13:11:40;;;;;;;10.25;7.85;;;;;;;;;;4985674;28;20097;-39
2022/01/16 13:14:07;;;;;;;11.98;8.88;;;;;;;;;;4985853;28;20118;-39
2022/01/16 13:16:41;;;;;;;10.10;8.10;;;;;;;;;;4984672;28;20030;-39
2022/01/16 13:19:10;;;;;;;10.57;8.27;;;;;;;;;;4986548;28;20105;-39
2022/01/16 13:21:48;;;;;;;9.70;8.48;;;;;;;;;;4998622;28;20496;-40
2022/01/16 13:24:47;;;;;;;9.32;8.15;;;;;;;;;;5005341;28;20037;-38
2022/01/16 13:27:19;;;;;;;10.02;8.10;;;;;;;;;;5005014;28;20046;-37
2022/01/16 13:29:47;;;;;;;9.53;8.40;;;;;;;;;;5005442;28;20079;-34
2022/01/16 13:32:15;;;;;;;9.63;8.32;;;;;;;;;;5005501;28;20296;-36
2022/01/16 13:34:42;;;;;;;8.55;7.65;;;;;;;;;;5005121;28;20046;-37
2022/01/16 13:37:13;;;;;;;9.00;7.18;;;;;;;;;;5005049;28;20026;-36
2022/01/16 13:39:59;;;;;;;8.88;7.70;;;;;;;;;;5003667;28;20076;-38
2022/01/16 13:45:35;;;;;;;8.93;7.28;;;;;;;;;;5004871;28;20496;-37
2022/01/16 13:48:05;;;;;;;9.55;8.32;;;;;;;;;;5005388;28;20060;-39
2022/01/16 13:50:50;;;;;;;9.38;7.78;;;;;;;;;;5004808;28;20492;-31
2022/01/16 13:53:22;;;;;;;9.75;7.25;;;;;;;;;;5005618;28;20029;-38
2022/01/16 13:55:59;;;;;;;8.80;7.22;;;;;;;;;;5005379;28;20246;-40
2022/01/16 13:58:29;;;;;;;8.68;6.82;;;;;;;;;;5004774;28;20064;-39
2022/01/16 14:01:00;;;;;;;7.75;6.63;;;;;;;;;;5005534;28;20026;-40
2022/01/16 14:03:27;;;;;;;8.38;6.97;;;;;;;;;;5005039;28;20029;-35
2022/01/16 14:05:54;;;;;;;8.82;7.10;;;;;;;;;;5005165;28;20530;-37
2022/01/16 14:08:26;;;;;;;8.35;6.65;;;;;;;;;;5005295;28;20060;-40
2022/01/16 14:10:53;;;;;;;8.30;6.85;;;;;;;;;;5005066;28;20117;-35
2022/01/16 14:13:19;;;;;;;8.52;6.57;;;;;;;;;;5004569;28;20034;-34
2022/01/16 14:16:07;;;;;;;7.65;6.75;;;;;;;;;;5006126;28;20030;-33
2022/01/16 14:19:04;;;;;;;8.15;6.45;;;;;;;;;;5008726;28;20145;-39
2022/01/16 14:24:04;;;;;;;7.50;6.63;;;;;;;;;;4989356;28;20038;-34
2022/01/16 14:26:30;;;;;;;7.82;6.38;;;;;;;;;;4989394;28;20038;-40
2022/01/16 14:28:55;;;;;;;7.60;6.80;;;;;;;;;;4988862;28;20462;-39
2022/01/16 14:31:20;;;;;;;7.32;6.00;;;;;;;;;;4999418;28;20030;-40
2022/01/16 14:33:50;;;;;;;9.43;6.53;;;;;;;;;;5008061;28;20466;-38
2022/01/16 14:36:16;;;;;;;7.85;6.50;;;;;;;;;;5008397;28;20029;-39
2022/01/16 14:38:41;;;;;;;8.93;6.25;;;;;;;;;;5008710;28;20045;-36
2022/01/16 14:41:08;;;;;;;7.30;6.53;;;;;;;;;;5008302;28;20476;-36
2022/01/16 14:43:51;;;;;;;8.05;6.60;;;;;;;;;;5007713;28;20115;-36
2022/01/16 14:46:18;;;;;;;8.88;6.65;;;;;;;;;;5008407;28;20065;-36
2022/01/16 14:48:43;;;;;;;8.13;6.38;;;;;;;;;;5008359;28;20440;-39
2022/01/16 14:51:09;;;;;;;7.35;6.30;;;;;;;;;;5006928;28;20061;-38
2022/01/16 14:53:34;;;;;;;7.30;6.05;;;;;;;;;;5007811;28;20056;-38
2022/01/16 14:56:00;;;;;;;8.65;6.68;;;;;;;;;;5008211;28;20030;-40
2022/01/16 14:58:25;;;;;;;8.38;6.60;;;;;;;;;;5007827;28;20408;-39
2022/01/16 15:00:53;;;;;;;8.77;7.32;;;;;;;;;;5007616;28;20057;-38
2022/01/16 15:03:18;;;;;;;7.18;5.82;;;;;;;;;;5008012;28;20099;-35
2022/01/16 15:05:44;;;;;;;7.50;6.00;;;;;;;;;;5007865;28;20025;-40
2022/01/16 15:08:10;;;;;;;8.02;6.80;;;;;;;;;;5007342;28;20041;-41
2022/01/16 15:10:38;;;;;;;7.63;6.40;;;;;;;;;;5007532;28;20408;-40
2022/01/16 15:13:04;;;;;;;7.32;5.97;;;;;;;;;;5006829;28;20026;-40
2022/01/16 15:15:29;;;;;;;8.07;6.07;;;;;;;;;;5007604;28;20041;-38
2022/01/16 15:18:00;;;;;;;6.53;5.45;;;;;;;;;;5007181;28;20026;-42
2022/01/16 15:20:29;;;;;;;7.53;6.28;;;;;;;;;;5006431;28;20022;-38
2022/01/16 15:22:56;;;;;;;7.13;5.65;;;;;;;;;;5007814;28;20042;-41
2022/01/16 15:25:24;;;;;;;7.50;5.97;;;;;;;;;;5007405;28;20070;-39
2022/01/16 15:27:49;;;;;;;7.18;5.85;;;;;;;;;;5007059;28;20033;-41
2022/01/16 15:30:15;;;;;;;6.57;5.70;;;;;;;;;;5007526;28;20084;-41
2022/01/16 15:32:41;;;;;;;6.03;5.22;;;;;;;;;;5006106;28;20033;-41
2022/01/16 15:35:09;;;;;;;6.32;5.50;;;;;;;;;;5007426;28;20414;-41
2022/01/16 15:37:35;;;;;;;6.97;5.68;;;;;;;;;;5007100;28;20523;-40
2022/01/16 15:40:01;;;;;;;7.13;5.35;;;;;;;;;;5007310;28;20061;-37